Time;durP1;ratioP1;P1;durP2;ratioP2;P2;SDS_P1;SDS_P2;PMS_P1;PMS_P2;Temp;Humidity;BMP_temperature;BMP_pressure;BME280_temperature;BME280_humidity;BME280_pressure;Samples;Min_cycle;Max_cycle;Signal;HPM_P1;HPM_P2
2023/04/11 00:04:19;;;;;;;4.97;2.90;;;;;;;13.13;54.75;99119.91;10377865;28;21052;-39
2023/04/11 00:09:21;;;;;;;2.90;2.60;;;;;;;13.37;55.56;99126.34;10386762;28;20262;-39
2023/04/11 00:14:24;;;;;;;2.93;2.23;;;;;;;13.02;55.12;99097.22;10382769;28;20240;-39
2023/04/11 00:19:27;;;;;;;2.67;2.40;;;;;;;13.02;56.55;99182.34;10381751;28;20284;-40
2023/04/11 00:24:28;;;;;;;3.47;3.10;;;;;;;13.59;55.71;99172.47;10384517;28;20273;-39
2023/04/11 00:29:32;;;;;;;4.57;2.57;;;;;;;11.46;58.67;99085.59;10380600;28;20216;-39
2023/04/11 00:34:34;;;;;;;3.43;3.13;;;;;;;12.90;57.58;99182.22;10373412;28;20252;-38
2023/04/11 00:39:37;;;;;;;3.83;3.10;;;;;;;11.93;58.83;99192.78;10362761;28;20219;-39
2023/04/11 00:44:39;;;;;;;3.67;2.80;;;;;;;11.56;59.79;99235.25;10383751;28;20239;-38
2023/04/11 00:49:41;;;;;;;3.07;2.13;;;;;;;10.59;59.72;99259.38;10378760;28;20219;-38
2023/04/11 00:54:43;;;;;;;2.03;1.93;;;;;;;9.84;56.84;99248.38;10381408;28;20216;-39
2023/04/11 00:59:47;;;;;;;2.83;1.60;;;;;;;10.65;55.65;99330.00;10382176;28;20236;-39
2023/04/11 01:04:49;;;;;;;3.73;1.80;;;;;;;10.70;56.26;99370.38;10384510;28;20236;-39
2023/04/11 01:09:52;;;;;;;2.37;1.60;;;;;;;11.69;53.85;99403.28;10363163;28;20216;-39
2023/04/11 01:14:54;;;;;;;2.87;1.60;;;;;;;12.77;50.58;99375.56;10379138;28;20485;-38
2023/04/11 01:19:56;;;;;;;2.47;2.10;;;;;;;14.27;49.88;99423.78;10379676;28;20356;-39
2023/04/11 01:24:58;;;;;;;1.90;1.80;;;;;;;12.22;50.98;99330.19;10376455;28;20317;-39
2023/04/11 01:30:01;;;;;;;2.50;1.93;;;;;;;12.30;51.57;99386.28;10374772;28;20292;-39
2023/04/11 01:35:04;;;;;;;2.63;1.93;;;;;;;13.48;49.46;99407.84;10377675;28;20229;-38
2023/04/11 01:40:06;;;;;;;2.97;2.10;;;;;;;13.10;50.86;99399.69;10379288;28;20214;-38
2023/04/11 01:45:09;;;;;;;2.87;1.60;;;;;;;11.51;52.44;99361.78;10381440;28;21551;-38
2023/04/11 01:50:11;;;;;;;3.00;1.67;;;;;;;11.02;53.90;99379.69;10375632;28;20209;-38
2023/04/11 01:55:13;;;;;;;2.43;2.00;;;;;;;13.00;50.63;99415.41;10377271;28;20230;-39
2023/04/11 02:00:15;;;;;;;3.83;2.20;;;;;;;15.03;47.40;99454.31;10378043;28;20213;-38
2023/04/11 02:05:17;;;;;;;2.43;2.00;;;;;;;14.44;48.07;99355.97;10358159;28;20381;-39
2023/04/11 02:10:19;;;;;;;1.87;1.70;;;;;;;13.21;50.17;99364.13;10377837;28;20599;-39
2023/04/11 02:15:21;;;;;;;2.30;1.77;;;;;;;13.74;49.09;99378.38;10382414;28;20231;-39
2023/04/11 02:20:23;;;;;;;3.93;1.97;;;;;;;14.76;47.43;99435.66;10378181;28;20235;-39
2023/04/11 02:25:24;;;;;;;2.37;1.67;;;;;;;14.17;48.84;99410.00;10378842;28;20228;-38
2023/04/11 02:30:26;;;;;;;2.63;2.10;;;;;;;13.28;50.16;99383.75;10377107;28;20209;-39
2023/04/11 02:35:28;;;;;;;3.17;2.73;;;;;;;13.72;49.96;99402.78;10374553;28;20255;-39
2023/04/11 02:40:30;;;;;;;2.10;2.00;;;;;;;13.50;50.85;99401.44;10376971;28;20224;-38
2023/04/11 02:45:31;;;;;;;4.20;2.27;;;;;;;13.79;49.76;99390.13;10379544;28;20562;-38
2023/04/11 02:50:35;;;;;;;2.60;2.20;;;;;;;13.83;50.13;99444.31;10379505;28;20200;-38
2023/04/11 02:55:36;;;;;;;3.27;1.80;;;;;;;13.44;50.78;99421.94;10377611;28;20236;-38
2023/04/11 03:00:38;;;;;;;2.93;2.63;;;;;;;12.70;52.14;99391.69;10376946;28;20404;-38
2023/04/11 03:05:40;;;;;;;3.03;2.13;;;;;;;13.46;50.46;99439.50;10382829;28;20258;-38
2023/04/11 03:10:41;;;;;;;3.37;2.83;;;;;;;13.08;51.54;99444.75;10383213;28;20666;-39
2023/04/11 03:15:43;;;;;;;2.53;2.10;;;;;;;12.47;51.98;99410.88;10374346;28;20316;-38
2023/04/11 03:20:45;;;;;;;3.53;2.70;;;;;;;12.83;51.38;99415.03;10377729;28;20271;-37
2023/04/11 03:25:47;;;;;;;4.47;2.60;;;;;;;12.73;52.13;99451.16;10378161;28;21030;-38
2023/04/11 03:30:49;;;;;;;2.53;2.13;;;;;;;12.80;52.11;99475.31;10362936;28;20840;-38
2023/04/11 03:35:51;;;;;;;3.93;2.00;;;;;;;12.87;52.23;99478.84;10379555;28;20251;-38
2023/04/11 03:40:52;;;;;;;3.80;1.90;;;;;;;12.12;52.07;99435.19;10383956;28;20307;-38
2023/04/11 03:45:54;;;;;;;3.07;2.20;;;;;;;10.86;52.93;99386.16;10377745;28;20814;-37
2023/04/11 03:50:56;;;;;;;2.00;1.80;;;;;;;10.67;52.71;99427.78;10379228;28;20255;-37
2023/04/11 03:55:58;;;;;;;1.90;1.80;;;;;;;10.62;51.68;99440.09;10299115;28;20265;-38
2023/04/11 04:01:01;;;;;;;1.93;1.57;;;;;;;11.94;50.14;99513.50;10338128;28;20234;-38
2023/04/11 04:06:03;;;;;;;2.03;1.80;;;;;;;11.33;50.63;99515.00;10313489;28;20715;-37
2023/04/11 04:11:05;;;;;;;1.97;1.50;;;;;;;10.17;52.14;99460.88;10305262;28;20755;-38
2023/04/11 04:16:07;;;;;;;2.17;2.07;;;;;;;11.93;49.09;99538.66;10337044;28;20229;-38
2023/04/11 04:21:09;;;;;;;2.03;1.93;;;;;;;12.49;48.36;99570.69;10324476;28;20246;-38
2023/04/11 04:26:12;;;;;;;4.63;2.00;;;;;;;12.58;47.18;99565.13;10315655;28;20238;-38
2023/04/11 04:31:18;;;;;;;2.00;1.90;;;;;;;11.78;48.01;99526.22;10317506;28;20597;-38
2023/04/11 04:36:23;;;;;;;1.70;1.57;;;;;;;11.06;48.86;99535.41;10315492;28;20727;-38
2023/04/11 04:41:32;;;;;;;1.90;1.80;;;;;;;11.73;48.66;99600.22;10315671;28;20601;-38
2023/04/11 04:46:35;;;;;;;2.63;1.43;;;;;;;12.64;47.97;99653.72;10310935;28;20245;-37
2023/04/11 04:51:39;;;;;;;2.40;2.07;;;;;;;12.10;48.23;99598.16;10321900;28;20240;-37
2023/04/11 04:56:41;;;;;;;2.93;1.90;;;;;;;10.83;50.61;99568.59;10315409;28;20765;-38
2023/04/11 05:01:43;;;;;;;2.00;1.90;;;;;;;10.58;51.21;99572.59;10317330;28;20673;-37
2023/04/11 05:06:45;;;;;;;2.10;1.90;;;;;;;11.21;51.17;99624.53;10312354;28;20275;-37
2023/04/11 05:11:49;;;;;;;2.30;1.60;;;;;;;12.73;48.71;99713.44;10316835;28;20242;-38
2023/04/11 05:16:50;;;;;;;1.63;1.53;;;;;;;11.67;51.27;99681.41;10316863;28;20242;-38
2023/04/11 05:21:53;;;;;;;3.57;1.67;;;;;;;11.54;50.37;99655.28;10314706;28;20320;-37
2023/04/11 05:26:55;;;;;;;1.80;1.70;;;;;;;11.93;50.54;99686.13;10309118;28;20256;-37
2023/04/11 05:31:57;;;;;;;3.87;2.10;;;;;;;10.97;51.42;99655.19;10314808;28;20728;-37
2023/04/11 05:37:00;;;;;;;2.07;1.80;;;;;;;11.11;51.89;99672.22;10316155;28;20281;-37
2023/04/11 05:42:04;;;;;;;3.90;2.50;;;;;;;11.17;51.22;99675.97;10346974;28;20236;-37
2023/04/11 05:47:08;;;;;;;4.13;2.30;;;;;;;11.59;50.87;99691.22;10311834;28;20596;-37
2023/04/11 05:52:10;;;;;;;2.97;2.03;;;;;;;10.21;52.59;99606.53;10356695;28;20691;-37
2023/04/11 05:57:12;;;;;;;4.33;2.80;;;;;;;10.26;53.32;99647.75;10314953;28;20296;-38
2023/04/11 06:02:14;;;;;;;5.60;3.00;;;;;;;12.11;50.26;99768.78;10351974;28;20202;-37
2023/04/11 06:07:16;;;;;;;3.70;2.53;;;;;;;9.90;52.85;99655.69;10306520;28;20233;-37
2023/04/11 06:12:18;;;;;;;3.07;1.73;;;;;;;11.68;50.76;99760.81;10308819;28;20572;-37
2023/04/11 06:17:20;;;;;;;1.97;1.87;;;;;;;11.74;50.75;99760.03;10354958;28;20214;-37
2023/04/11 06:22:21;;;;;;;3.33;2.13;;;;;;;11.60;50.92;99764.41;10292869;28;20210;-38
2023/04/11 06:27:23;;;;;;;2.77;2.20;;;;;;;11.58;50.48;99775.31;10306571;28;20238;-37
2023/04/11 06:32:26;;;;;;;5.57;2.80;;;;;;;11.38;50.75;99764.41;10311494;28;20236;-37
2023/04/11 06:37:27;;;;;;;3.33;2.60;;;;;;;11.09;51.41;99759.16;10310782;28;20202;-38
2023/04/11 06:42:29;;;;;;;2.37;2.10;;;;;;;12.27;48.85;99838.25;10310517;28;20241;-37
2023/04/11 06:47:31;;;;;;;5.50;2.47;;;;;;;11.94;49.36;99824.56;10313879;28;20249;-38
2023/04/11 06:52:33;;;;;;;7.90;2.50;;;;;;;12.26;48.81;99852.69;10312243;28;20255;-38
2023/04/11 06:57:34;;;;;;;2.90;2.30;;;;;;;12.34;49.29;99865.97;10313393;28;20699;-36
2023/04/11 07:02:37;;;;;;;3.47;2.20;;;;;;;11.93;50.08;99852.38;10311714;28;20520;-37
2023/04/11 07:07:40;;;;;;;4.13;2.53;;;;;;;13.84;46.49;99919.31;10313912;28;20249;-37
2023/04/11 07:12:41;;;;;;;5.50;2.67;;;;;;;11.87;49.46;99812.94;10310534;28;20244;-37
2023/04/11 07:17:46;;;;;;;3.50;2.60;;;;;;;12.85;47.67;99864.91;10312742;28;20271;-37
2023/04/11 07:22:47;;;;;;;4.60;2.50;;;;;;;12.95;48.49;99864.53;10311178;28;20241;-37
2023/04/11 07:27:50;;;;;;;4.57;2.93;;;;;;;13.29;47.16;99874.47;10313026;28;20330;-37
2023/04/11 07:32:52;;;;;;;6.87;2.80;;;;;;;12.81;47.74;99842.16;10310259;28;20236;-37
2023/04/11 07:37:56;;;;;;;4.23;2.30;;;;;;;12.14;47.78;99795.22;10309227;28;20237;-37
2023/04/11 07:42:58;;;;;;;5.53;2.40;;;;;;;11.97;48.54;99792.00;10313131;28;20359;-37
2023/04/11 07:47:59;;;;;;;6.20;3.07;;;;;;;12.33;47.60;99818.69;10327088;28;20332;-37
2023/04/11 07:53:02;;;;;;;8.27;2.70;;;;;;;10.97;47.23;99751.59;10317920;28;20658;-38
2023/04/11 07:58:04;;;;;;;3.97;2.40;;;;;;;12.38;46.84;99844.94;10320936;28;20730;-37
2023/04/11 08:03:07;;;;;;;6.60;3.00;;;;;;;12.28;46.90;99831.03;10321405;28;20225;-38
2023/04/11 08:08:09;;;;;;;6.57;3.03;;;;;;;12.84;46.63;99881.19;10352281;28;20230;-37
2023/04/11 08:13:11;;;;;;;6.80;2.73;;;;;;;11.74;47.45;99805.59;10357109;28;21516;-37
2023/04/11 08:18:15;;;;;;;4.27;2.47;;;;;;;11.95;45.31;99815.50;10349644;28;20209;-37
2023/04/11 08:23:18;;;;;;;6.83;3.07;;;;;;;11.36;46.29;99822.69;10346992;28;20302;-37
2023/04/11 08:29:10;;;;;;;6.83;2.60;;;;;;;11.96;45.18;99833.22;10354813;28;20863;-39
2023/04/11 08:34:12;;;;;;;6.67;3.03;;;;;;;12.06;44.92;99831.06;10357229;28;20260;-37
2023/04/11 08:39:13;;;;;;;5.80;2.80;;;;;;;11.97;45.05;99834.91;10346350;28;20238;-37
2023/04/11 08:44:15;;;;;;;5.33;2.33;;;;;;;12.85;43.86;99878.31;10354009;28;20229;-38
2023/04/11 08:49:17;;;;;;;9.37;2.83;;;;;;;13.06;44.35;99898.91;10343301;28;20226;-37
2023/04/11 08:54:18;;;;;;;7.00;2.50;;;;;;;14.48;42.06;99947.59;10349515;28;20679;-38
2023/04/11 08:59:20;;;;;;;5.50;3.00;;;;;;;13.31;42.67;99862.69;10351834;28;20233;-37
2023/04/11 09:04:39;;;;;;;8.53;2.50;;;;;;;13.91;42.39;99914.78;10357331;28;20237;-38
2023/04/11 09:09:42;;;;;;;6.70;2.53;;;;;;;11.49;43.71;99764.91;10350055;28;20703;-37
2023/04/11 09:14:43;;;;;;;7.87;3.23;;;;;;;12.31;43.29;99787.72;10351136;28;20236;-37
2023/04/11 09:19:45;;;;;;;7.53;2.93;;;;;;;12.34;42.90;99795.38;10352968;28;20234;-38
2023/04/11 09:25:01;;;;;;;5.83;2.73;;;;;;;12.03;42.83;99768.91;10351716;28;20229;-38
2023/04/11 09:30:04;;;;;;;5.43;2.50;;;;;;;12.51;42.36;99803.97;10347478;28;20545;-38
2023/04/11 09:35:17;;;;;;;9.23;2.50;;;;;;;13.24;41.54;99850.00;10352419;28;20271;-38
2023/04/11 09:40:22;;;;;;;4.70;2.57;;;;;;;13.40;42.43;99861.50;10352292;28;20235;-38
2023/04/11 09:45:25;;;;;;;6.87;2.13;;;;;;;13.40;42.39;99834.59;10353763;28;20232;-38
2023/04/11 09:50:27;;;;;;;5.73;2.50;;;;;;;13.26;42.83;99815.72;10351098;28;20225;-38
2023/04/11 09:55:29;;;;;;;6.90;2.50;;;;;;;13.06;42.31;99804.06;10350459;28;20606;-38
2023/04/11 10:00:31;;;;;;;6.10;2.60;;;;;;;13.06;42.31;99804.06;10343887;28;20240;-38
2023/04/11 10:05:33;;;;;;;8.83;2.97;;;;;;;13.02;42.04;99803.63;10350181;28;20634;-38
2023/04/11 10:10:35;;;;;;;7.87;2.73;;;;;;;13.54;41.97;99835.47;10351592;28;20236;-38
2023/04/11 10:15:57;;;;;;;7.70;3.10;;;;;;;13.07;43.09;99773.47;10350441;28;20596;-37
2023/04/11 10:21:00;;;;;;;6.20;2.27;;;;;;;13.37;42.73;99814.31;10350144;28;20448;-38
2023/04/11 10:26:01;;;;;;;5.33;2.50;;;;;;;13.51;42.17;99793.69;10347900;28;20608;-38
2023/04/11 10:31:03;;;;;;;6.43;2.70;;;;;;;13.25;41.13;99792.56;10346105;28;20839;-38
2023/04/11 10:36:10;;;;;;;3.20;2.43;;;;;;;13.71;40.82;99809.03;10347781;28;20231;-38
2023/04/11 10:41:22;;;;;;;6.57;2.80;;;;;;;13.48;39.57;99749.22;10350945;28;20343;-38
2023/04/11 10:46:24;;;;;;;5.53;2.57;;;;;;;14.01;40.01;99779.88;10349743;28;20237;-38
2023/04/11 10:51:31;;;;;;;9.43;2.90;;;;;;;13.47;40.85;99752.94;10347882;28;20484;-39
2023/04/11 10:56:45;;;;;;;7.30;3.20;;;;;;;13.18;41.25;99774.78;10344521;28;20329;-40
2023/04/11 11:06:33;;;;;;;5.83;2.83;;;;;;;10.67;44.71;99785.56;10362369;27;20819;-70
2023/04/11 11:11:43;;;;;;;6.43;2.40;;;;;;;11.83;43.42;99817.88;10308213;28;20232;-70
2023/04/11 11:16:45;;;;;;;4.87;2.60;;;;;;;10.99;43.15;99754.91;10308568;28;20725;-69
2023/04/11 11:21:47;;;;;;;6.60;2.67;;;;;;;11.71;42.75;99777.34;10346577;28;20278;-70
2023/04/11 11:26:49;;;;;;;8.33;3.03;;;;;;;12.51;41.97;99818.22;10326369;28;20233;-69
2023/04/11 11:31:52;;;;;;;4.20;2.60;;;;;;;11.38;41.79;99791.19;10318535;28;20234;-70
2023/04/11 11:36:55;;;;;;;5.20;2.80;;;;;;;12.27;42.67;99819.47;10347003;28;20327;-69
2023/04/11 11:41:57;;;;;;;6.57;2.60;;;;;;;12.81;40.92;99836.78;10353759;28;20419;-70
2023/04/11 11:47:05;;;;;;;6.50;2.47;;;;;;;12.42;40.67;99800.59;10352522;28;20727;-70
2023/04/11 11:52:07;;;;;;;5.63;2.60;;;;;;;12.87;40.58;99835.16;10354933;28;20861;-69
2023/04/11 11:57:08;;;;;;;5.67;2.53;;;;;;;11.95;41.02;99799.41;10349952;28;20241;-70
2023/04/11 12:02:10;;;;;;;3.70;2.20;;;;;;;12.25;40.73;99742.88;10351964;28;20242;-70
2023/04/11 12:07:12;;;;;;;5.43;2.43;;;;;;;13.06;40.14;99804.06;10355033;28;20241;-70
2023/04/11 12:12:16;;;;;;;4.17;2.70;;;;;;;12.61;40.80;99784.84;10352679;28;20209;-70
2023/04/11 12:17:17;;;;;;;4.47;2.20;;;;;;;12.52;40.46;99784.19;10327534;28;20323;-69
2023/04/11 12:22:19;;;;;;;8.10;2.40;;;;;;;13.34;40.86;99808.53;10322526;28;20596;-70
2023/04/11 12:27:21;;;;;;;5.03;2.30;;;;;;;12.46;40.59;99777.69;10332698;28;20301;-70
2023/04/11 12:32:23;;;;;;;5.73;2.30;;;;;;;12.85;40.42;99743.22;10328248;28;20210;-70
2023/04/11 12:37:25;;;;;;;4.80;2.20;;;;;;;13.16;40.45;99768.75;10324612;28;20233;-70
2023/04/11 12:42:26;;;;;;;3.37;2.13;;;;;;;12.09;39.91;99712.66;10322392;28;20225;-70
2023/04/11 12:47:28;;;;;;;10.13;2.30;;;;;;;13.16;40.17;99772.28;10323143;28;20234;-70
2023/04/11 12:52:30;;;;;;;7.10;2.77;;;;;;;13.75;40.08;99786.91;10321888;28;20329;-70
2023/04/11 12:57:31;;;;;;;5.90;2.50;;;;;;;12.66;40.17;99720.66;10319718;28;20246;-70
2023/04/11 13:02:34;;;;;;;6.07;2.00;;;;;;;13.83;39.30;99780.47;10323411;28;20234;-69
2023/04/11 13:07:45;;;;;;;7.73;2.47;;;;;;;13.85;39.49;99767.66;10319465;28;20317;-70
2023/04/11 13:12:49;;;;;;;7.67;2.50;;;;;;;13.93;39.04;99767.44;10322224;28;20253;-69
2023/04/11 13:17:51;;;;;;;5.97;2.60;;;;;;;14.45;38.34;99783.78;10322991;28;20256;-70
2023/04/11 13:22:52;;;;;;;4.50;2.57;;;;;;;13.63;38.22;99719.47;10321381;28;20333;-70
2023/04/11 13:27:55;;;;;;;4.73;2.67;;;;;;;13.82;38.10;99733.94;10320043;28;20230;-70
2023/04/11 13:32:57;;;;;;;2.73;1.80;;;;;;;13.70;37.08;99714.09;10317766;28;20230;-70
2023/04/11 13:37:58;;;;;;;5.43;2.90;;;;;;;13.39;37.29;99685.94;10323253;28;20237;-70
2023/04/11 13:43:00;;;;;;;3.50;2.07;;;;;;;13.53;38.17;99686.78;10320499;28;20505;-70
2023/04/11 13:48:02;;;;;;;5.33;2.10;;;;;;;13.88;37.29;99709.94;10318516;28;20413;-70
2023/04/11 13:53:03;;;;;;;5.33;2.17;;;;;;;14.77;36.86;99754.28;10316956;28;20319;-70
2023/04/11 13:58:05;;;;;;;4.40;2.20;;;;;;;13.75;36.24;99665.91;10318843;28;20248;-70
2023/04/11 14:03:07;;;;;;;6.33;2.93;;;;;;;14.93;36.38;99732.28;10314283;28;20570;-70
2023/04/11 14:08:08;;;;;;;4.27;2.17;;;;;;;14.35;36.91;99687.31;10320367;28;20238;-72
2023/04/11 14:13:10;;;;;;;3.23;2.20;;;;;;;13.45;37.40;99619.81;10316805;28;20314;-70
2023/04/11 14:18:12;;;;;;;2.67;1.80;;;;;;;13.27;35.96;99663.38;10319733;28;20229;-70
2023/04/11 14:23:15;;;;;;;4.33;2.20;;;;;;;14.19;36.60;99634.78;10318857;28;20689;-70
2023/04/11 14:28:17;;;;;;;5.70;2.77;;;;;;;14.03;36.78;99622.56;10317846;28;20229;-70
2023/04/11 14:33:18;;;;;;;3.80;2.23;;;;;;;13.99;36.52;99623.22;10320907;28;20611;-70
2023/04/11 14:38:20;;;;;;;4.73;2.30;;;;;;;15.82;35.96;99699.97;10326804;28;20233;-71
2023/04/11 14:43:22;;;;;;;3.93;1.90;;;;;;;15.06;34.40;99641.63;10312071;28;20233;-68
2023/04/11 14:48:27;;;;;;;3.87;2.43;;;;;;;14.29;36.69;99576.97;10320140;28;20237;-69
2023/04/11 14:53:30;;;;;;;6.47;2.40;;;;;;;14.24;37.09;99601.03;10317599;28;20236;-68
2023/04/11 14:58:32;;;;;;;4.57;2.13;;;;;;;14.39;36.70;99577.34;10318787;28;20239;-69
2023/04/11 15:03:34;;;;;;;5.57;2.77;;;;;;;15.30;36.30;99600.41;10317169;28;20269;-68
2023/04/11 15:08:36;;;;;;;5.77;2.33;;;;;;;13.61;36.44;99513.69;10320973;28;20230;-68
2023/04/11 15:13:37;;;;;;;6.63;2.33;;;;;;;14.35;35.96;99536.56;10315040;28;20614;-69
2023/04/11 15:18:40;;;;;;;8.23;2.87;;;;;;;14.89;36.44;99541.66;10318435;28;20284;-68
2023/04/11 15:23:42;;;;;;;5.43;3.00;;;;;;;15.13;35.99;99524.69;10313420;28;20234;-70
2023/04/11 15:28:44;;;;;;;5.87;2.53;;;;;;;15.06;35.78;99518.50;10315814;28;20351;-71
2023/04/11 15:33:46;;;;;;;5.57;2.97;;;;;;;14.52;35.83;99542.28;10317566;28;20466;-70
2023/04/11 15:38:48;;;;;;;5.77;2.23;;;;;;;15.00;35.63;99534.72;10317850;28;20237;-70
2023/04/11 15:43:50;;;;;;;5.77;2.70;;;;;;;15.22;34.79;99527.06;10321249;28;20765;-70
2023/04/11 15:48:52;;;;;;;3.27;2.17;;;;;;;13.50;35.69;99450.66;10317883;28;20699;-73
2023/04/11 15:53:53;;;;;;;3.97;2.63;;;;;;;14.64;36.12;99498.50;10325469;28;20236;-71
2023/04/11 15:58:55;;;;;;;9.90;2.97;;;;;;;14.87;36.02;99461.06;10327989;28;20256;-70
2023/04/11 16:03:57;;;;;;;5.57;2.93;;;;;;;14.16;36.50;99448.72;10323660;28;20248;-71
2023/04/11 16:08:59;;;;;;;3.67;2.43;;;;;;;15.27;35.18;99468.78;10321833;28;20333;-71
2023/04/11 16:14:01;;;;;;;4.83;2.63;;;;;;;15.61;35.33;99468.44;10320599;28;20233;-72
2023/04/11 16:19:05;;;;;;;3.60;2.47;;;;;;;15.73;35.72;99472.03;10323795;28;20622;-72
2023/04/11 16:24:07;;;;;;;4.87;2.40;;;;;;;12.88;36.93;99351.59;10329609;28;20229;-72
2023/04/11 16:29:08;;;;;;;6.40;3.33;;;;;;;14.72;36.55;99420.97;10320625;28;20248;-71
2023/04/11 16:34:10;;;;;;;3.83;2.10;;;;;;;14.37;35.87;99448.38;10324743;28;20461;-73
2023/04/11 16:39:12;;;;;;;6.27;2.53;;;;;;;15.17;35.42;99416.41;10325122;28;20234;-72
2023/04/11 16:44:14;;;;;;;4.77;2.63;;;;;;;14.77;36.27;99391.50;10332074;28;20225;-72
2023/04/11 16:49:15;;;;;;;7.27;3.20;;;;;;;15.25;36.17;99426.91;10324146;28;20234;-73
2023/04/11 16:54:17;;;;;;;7.07;3.40;;;;;;;15.40;36.34;99386.91;10317455;28;20226;-73
2023/04/11 16:59:19;;;;;;;4.03;2.80;;;;;;;15.33;36.23;99408.59;10355229;23;20276;-39
2023/04/11 17:04:20;;;;;;;8.07;3.77;;;;;;;14.26;37.40;99380.97;10349608;28;20244;-39
2023/04/11 17:09:22;;;;;;;5.10;2.70;;;;;;;15.00;37.13;99395.47;10352739;28;20225;-39
2023/04/11 17:14:24;;;;;;;5.00;2.87;;;;;;;13.70;37.48;99352.94;10349052;28;20214;-39
2023/04/11 17:19:26;;;;;;;7.57;2.50;;;;;;;14.22;36.98;99383.25;10353416;28;20731;-39
2023/04/11 17:24:28;;;;;;;4.83;2.83;;;;;;;13.91;37.73;99367.94;10368311;28;20857;-39
2023/04/11 17:29:30;;;;;;;5.67;3.10;;;;;;;14.79;36.58;99334.72;10391795;28;20237;-39
2023/04/11 17:34:31;;;;;;;6.57;3.33;;;;;;;15.30;36.82;99384.75;10387376;28;20235;-39
2023/04/11 17:39:33;;;;;;;8.03;2.40;;;;;;;14.83;36.84;99364.75;10392951;28;20213;-39
2023/04/11 17:44:35;;;;;;;3.67;2.20;;;;;;;14.43;37.15;99357.03;10390493;28;20237;-39
2023/04/11 17:49:37;;;;;;;3.37;2.37;;;;;;;14.92;37.26;99352.66;10389492;28;20259;-39
2023/04/11 17:54:39;;;;;;;5.90;2.63;;;;;;;14.27;37.88;99334.16;10387423;28;20238;-39
2023/04/11 17:59:40;;;;;;;6.53;3.30;;;;;;;15.10;37.48;99359.88;10389894;28;20295;-39
2023/04/11 18:04:42;;;;;;;4.67;3.10;;;;;;;14.51;37.28;99337.88;10375555;28;20244;-39
2023/04/11 18:09:45;;;;;;;4.20;2.63;;;;;;;15.84;36.38;99322.88;10387675;28;20234;-39
2023/04/11 18:14:46;;;;;;;7.40;2.83;;;;;;;14.77;37.83;99343.00;10388464;28;20283;-39
2023/04/11 18:19:48;;;;;;;3.40;2.67;;;;;;;14.58;37.60;99326.03;10388521;28;20236;-39
2023/04/11 18:24:53;;;;;;;5.70;3.77;;;;;;;15.26;37.19;99347.69;10386293;28;20241;-39
2023/04/11 18:29:54;;;;;;;4.63;2.67;;;;;;;14.03;38.08;99313.19;10387885;28;21810;-39
2023/04/11 18:34:57;;;;;;;5.53;3.00;;;;;;;15.96;36.34;99354.44;10400664;28;20232;-39
2023/04/11 18:40:00;;;;;;;4.70;2.70;;;;;;;15.22;37.00;99365.34;10388419;28;20737;-39
2023/04/11 18:45:02;;;;;;;5.50;3.07;;;;;;;16.00;36.53;99361.03;10387037;28;20282;-39
2023/04/11 18:50:05;;;;;;;5.87;3.50;;;;;;;14.24;38.26;99305.84;10387442;28;20239;-39
2023/04/11 18:55:08;;;;;;;5.30;3.00;;;;;;;14.63;37.81;99352.28;10387998;28;20237;-39
2023/04/11 19:00:14;;;;;;;5.93;3.60;;;;;;;14.23;37.98;99346.44;10382080;28;20244;-39
2023/04/11 19:05:25;;;;;;;5.57;3.47;;;;;;;14.43;37.85;99373.19;10387218;28;20239;-39
2023/04/11 19:10:28;;;;;;;8.00;4.17;;;;;;;14.93;36.94;99335.41;10386196;28;20299;-39
2023/04/11 19:15:30;;;;;;;9.53;4.53;;;;;;;15.27;36.91;99352.06;10386240;28;20233;-39
2023/04/11 19:20:32;;;;;;;17.30;11.73;;;;;;;14.31;38.06;99325.44;10387416;28;20232;-39
2023/04/11 19:25:34;;;;;;;11.57;7.00;;;;;;;15.65;36.71;99327.50;10389656;28;20240;-38
2023/04/11 19:30:36;;;;;;;10.20;6.10;;;;;;;15.30;36.94;99330.00;10395394;28;20610;-39
2023/04/11 19:35:41;;;;;;;7.37;5.37;;;;;;;15.01;36.86;99320.84;10395664;28;20240;-39
2023/04/11 19:40:43;;;;;;;4.73;3.93;;;;;;;16.09;36.10;99286.78;10394181;28;20232;-38
2023/04/11 19:45:45;;;;;;;5.83;3.73;;;;;;;16.69;35.58;99295.75;10399352;28;20236;-39
2023/04/11 19:50:47;;;;;;;5.20;3.33;;;;;;;16.42;35.34;99261.13;10394570;28;20248;-38
2023/04/11 19:55:52;;;;;;;6.93;3.40;;;;;;;16.54;35.38;99272.72;10393621;28;20233;-38
2023/04/11 20:00:54;;;;;;;6.20;3.60;;;;;;;17.04;35.11;99265.97;10366513;28;20792;-38
2023/04/11 20:05:55;;;;;;;9.10;4.80;;;;;;;16.18;36.38;99214.38;10354614;28;20278;-38
2023/04/11 20:10:57;;;;;;;8.33;5.00;;;;;;;15.87;37.15;99206.38;10362274;28;20725;-38
2023/04/11 20:16:03;;;;;;;8.33;4.43;;;;;;;15.51;37.75;99240.56;10365559;28;20240;-38
2023/04/11 20:21:06;;;;;;;7.87;4.13;;;;;;;14.75;38.42;99207.75;10359685;28;20228;-38
2023/04/11 20:26:08;;;;;;;7.50;4.27;;;;;;;15.05;37.70;99212.41;10385889;28;21293;-38
2023/04/11 20:31:10;;;;;;;5.87;3.50;;;;;;;13.51;38.76;99145.88;10391178;28;20228;-38
2023/04/11 20:36:14;;;;;;;4.47;3.30;;;;;;;13.73;38.37;99193.88;10391700;28;20243;-38
2023/04/11 20:41:18;;;;;;;7.23;3.50;;;;;;;15.25;37.04;99200.50;10392974;28;20790;-38
2023/04/11 20:46:20;;;;;;;6.53;3.67;;;;;;;13.13;39.20;99168.25;10391711;28;20259;-38
2023/04/11 20:51:22;;;;;;;5.00;3.50;;;;;;;13.63;39.20;99208.66;10393019;28;20236;-38
2023/04/11 20:56:24;;;;;;;8.80;4.13;;;;;;;13.83;38.83;99211.19;10367507;22;20337;-36
2023/04/11 21:01:26;;;;;;;6.20;4.13;;;;;;;13.21;39.19;99170.69;10303807;28;20276;-36
2023/04/11 21:06:28;;;;;;;8.67;4.83;;;;;;;14.47;37.47;99159.03;10305116;28;20258;-36
2023/04/11 21:11:31;;;;;;;7.80;4.30;;;;;;;12.17;40.83;99129.63;10306530;28;20242;-36
2023/04/11 21:16:33;;;;;;;5.53;3.97;;;;;;;12.62;40.24;99166.44;10341101;28;20735;-36
2023/04/11 21:21:34;;;;;;;4.67;3.67;;;;;;;12.84;39.58;99167.78;10318855;28;20233;-36
2023/04/11 21:26:36;;;;;;;5.13;3.53;;;;;;;12.79;40.09;99159.56;10312855;28;20273;-37
2023/04/11 21:31:38;;;;;;;6.47;3.30;;;;;;;12.24;40.92;99127.75;10311338;28;20236;-36
2023/04/11 21:36:40;;;;;;;4.20;3.27;;;;;;;12.03;40.75;99117.28;10345181;28;20229;-36
2023/04/11 21:41:41;;;;;;;6.50;3.53;;;;;;;11.84;41.62;99101.03;10349564;28;20249;-36
2023/04/11 21:46:43;;;;;;;4.97;3.30;;;;;;;13.51;39.72;99150.44;10350182;28;21067;-37
2023/04/11 21:51:45;;;;;;;6.97;3.50;;;;;;;12.49;41.30;99132.44;10355659;28;20233;-36
2023/04/11 21:56:47;;;;;;;8.70;3.80;;;;;;;13.06;40.61;99141.44;10347342;28;20245;-36
2023/04/11 22:01:48;;;;;;;5.30;3.00;;;;;;;11.95;42.07;99089.66;10348629;28;20231;-38
2023/04/11 22:06:52;;;;;;;4.73;3.33;;;;;;;12.02;41.89;99089.66;10347046;28;20237;-37
2023/04/11 22:11:54;;;;;;;6.70;3.10;;;;;;;12.86;41.01;99114.69;10352518;28;20245;-36
2023/04/11 22:16:57;;;;;;;9.20;3.77;;;;;;;12.88;41.40;99119.84;10349119;28;20264;-37
2023/04/11 22:22:02;;;;;;;5.20;2.97;;;;;;;12.93;41.61;99090.47;10347458;28;20235;-37
2023/04/11 22:27:05;;;;;;;4.90;2.97;;;;;;;12.72;41.74;99105.91;10349385;28;20316;-36
2023/04/11 22:32:07;;;;;;;6.17;3.80;;;;;;;12.74;41.92;99103.81;10350028;28;20610;-36
2023/04/11 22:37:08;;;;;;;9.10;3.30;;;;;;;13.51;40.89;99076.00;10348088;28;20244;-36
2023/04/11 22:42:10;;;;;;;4.23;3.00;;;;;;;14.71;39.55;99093.47;10347220;28;20252;-36
2023/04/11 22:47:14;;;;;;;4.43;2.97;;;;;;;13.51;40.93;99100.19;10347912;28;20352;-36
2023/04/11 22:52:22;;;;;;;4.23;3.10;;;;;;;13.03;41.32;99098.06;10352017;28;20202;-36
2023/04/11 22:57:24;;;;;;;4.77;3.23;;;;;;;15.01;38.83;99084.56;10349861;28;20237;-36
2023/04/11 23:02:30;;;;;;;5.67;2.53;;;;;;;13.47;40.24;99099.00;10347567;28;20866;-37
2023/04/11 23:07:33;;;;;;;4.87;3.20;;;;;;;11.07;43.57;98937.31;10347796;28;20621;-37
2023/04/11 23:12:35;;;;;;;5.27;3.00;;;;;;;11.05;44.46;99039.25;10345694;28;20240;-37
2023/04/11 23:17:37;;;;;;;4.73;3.10;;;;;;;11.38;43.48;99089.31;10348903;28;20237;-37
2023/04/11 23:22:41;;;;;;;6.27;3.07;;;;;;;11.21;44.20;99072.00;10345249;28;20244;-37
2023/04/11 23:27:43;;;;;;;3.43;2.93;;;;;;;10.97;44.57;99073.44;10322797;28;20651;-37
2023/04/11 23:32:45;;;;;;;5.17;3.03;;;;;;;12.04;43.89;99090.25;10351603;28;20293;-37